Brentwood, New Hampshire
Current Conditions -  °F | °C
As of 8:58 PM on Saturday 25 Oct 2014 (Local Time) from KPSM Reporting Station
Overcast Overcast  
Wind Chill: 13°   Ceiling: 7000
Heat Index: 13°   Visibility: 10mi
Dew Point:   Wind: 3mph
Humidity: 65%   Direction: 220°SW
Pressure: 29.53"   Gusts: NA
Location:  42.9832°N, 70.9915°W
Report Text: KPSM 260058Z 22003KT 10SM BKN070 BKN090 OVC200 13/07 A2953 RMK AO2A SLP003 T01310067
Loading
Personal Weather Stations






























Interactive Weather Map
Tropical Storm Tracking
New forecast layout! Learn more

10-Day Weather Forecast

Advertisements
Track Severe Weather on mobile